Time;durP1;ratioP1;P1;durP2;ratioP2;P2;SDS_P1;SDS_P2;PMS_P1;PMS_P2;Temp;Humidity;BMP_temperature;BMP_pressure;BME280_temperature;BME280_humidity;BME280_pressure;Samples;Min_cycle;Max_cycle;Signal;HPM_P1;HPM_P2
2021/04/04 00:00:42;;;;;;;5.77;5.20;;;0.20;99.90;;;0.91;90.83;95901.70;641934;221;24511;-72
2021/04/04 00:03:11;;;;;;;7.27;5.70;;;0.10;99.90;;;0.87;91.58;95900.75;638952;221;24490;-72
2021/04/04 00:05:40;;;;;;;6.30;5.70;;;0.20;99.90;;;0.89;91.83;95895.78;633489;220;31857;-72
2021/04/04 00:08:09;;;;;;;8.35;6.35;;;0.20;99.90;;;0.87;91.18;95893.24;640451;220;31689;-72
2021/04/04 00:10:38;;;;;;;6.30;5.70;;;0.10;99.90;;;0.83;90.83;95892.87;638505;221;28819;-73
2021/04/04 00:13:07;;;;;;;7.53;5.67;;;0.10;99.90;;;0.69;91.98;95890.98;644932;221;24515;-72
2021/04/04 00:15:36;;;;;;;6.40;5.80;;;0.00;99.90;;;0.69;92.81;95887.52;639207;221;24556;-72
2021/04/04 00:18:06;;;;;;;6.93;5.77;;;0.00;99.90;;;0.68;92.74;95887.86;640169;221;24771;-72
2021/04/04 00:20:35;;;;;;;6.77;6.07;;;0.00;99.90;;;0.70;92.96;95886.99;640021;221;24501;-72
2021/04/04 00:23:04;;;;;;;7.33;6.73;;;0.00;99.90;;;0.61;93.42;95886.73;640094;221;26060;-72
2021/04/04 00:25:33;;;;;;;6.93;6.10;;;0.00;99.90;;;0.56;93.76;95883.16;640551;220;26620;-72
2021/04/04 00:28:02;;;;;;;7.80;5.40;;;0.00;99.90;;;0.56;94.09;95887.43;642715;221;24625;-72
2021/04/04 00:30:31;;;;;;;6.53;5.70;;;0.00;99.90;;;0.43;94.76;95885.16;639049;221;25218;-72
2021/04/04 00:33:01;;;;;;;7.00;5.60;;;-0.10;99.90;;;0.34;95.45;95881.06;641511;221;24500;-72
2021/04/04 00:35:51;;;;;;;7.75;5.90;;;-0.20;99.90;;;0.39;95.58;95881.97;646662;212;31583;-71
2021/04/04 00:38:20;;;;;;;8.80;8.10;;;-0.10;99.90;;;0.34;95.66;95875.53;641682;220;23498;-72
2021/04/04 00:40:50;;;;;;;5.20;4.70;;;-0.10;99.90;;;0.36;96.39;95878.63;642181;220;24538;-72
2021/04/04 00:43:19;;;;;;;7.07;6.30;;;-0.20;99.90;;;0.40;96.13;95881.46;654909;216;24465;-72
2021/04/04 00:45:48;;;;;;;7.27;5.73;;;-0.10;99.90;;;0.25;95.81;95881.06;669033;211;24463;-72
2021/04/04 00:48:17;;;;;;;6.10;5.50;;;-0.20;99.90;;;0.32;96.00;95879.59;652560;216;29790;-72
2021/04/04 00:50:46;;;;;;;11.07;5.90;;;-0.20;99.90;;;0.18;96.00;95882.16;654382;215;24487;-72
2021/04/04 00:53:15;;;;;;;10.47;6.13;;;-0.40;99.90;;;0.16;96.92;95878.91;672115;211;24441;-73
2021/04/04 00:55:44;;;;;;;6.63;5.80;;;-0.40;99.90;;;0.20;96.67;95878.11;670790;211;28917;-72
2021/04/04 00:58:13;;;;;;;9.40;6.30;;;-0.30;99.90;;;0.24;96.21;95877.84;675300;211;24433;-72
2021/04/04 01:00:42;;;;;;;7.37;5.87;;;-0.30;99.90;;;0.22;96.49;95884.20;672835;211;24467;-72
2021/04/04 01:03:11;;;;;;;6.20;5.40;;;-0.30;99.90;;;0.21;96.25;95881.92;668378;211;26802;-72
2021/04/04 01:05:44;;;;;;;7.60;6.90;;;-0.40;99.90;;;0.21;96.59;95875.75;669522;211;24454;-72
2021/04/04 01:08:11;;;;;;;7.55;6.37;;;-0.30;99.90;;;0.11;96.04;95876.34;666295;211;42089;-72
2021/04/04 01:10:41;;;;;;;7.40;5.97;;;-0.40;99.90;;;0.10;96.66;95879.59;666121;211;23619;-72
2021/04/04 01:13:16;;;;;;;6.57;5.97;;;-0.50;99.90;;;0.07;96.42;95878.09;670502;211;24407;-73
2021/04/04 01:18:38;;;;;;;9.73;6.75;;;-0.60;99.90;;;0.00;96.38;95878.34;649468;212;31551;-72
2021/04/04 01:21:12;;;;;;;7.63;6.90;;;-0.60;99.90;;;-0.09;97.58;95877.54;641641;220;23496;-72
2021/04/04 01:23:58;;;;;;;6.20;5.60;;;-0.60;99.90;;;-0.11;98.34;95875.42;642515;220;24485;-72
2021/04/04 01:26:49;;;;;;;6.80;5.13;;;-0.60;99.90;;;-0.11;98.37;95869.93;641083;220;24539;-72
2021/04/04 01:29:19;;;;;;;5.50;5.00;;;-0.60;99.90;;;-0.16;98.85;95874.77;641640;220;24530;-72
2021/04/04 01:31:49;;;;;;;6.95;6.25;;;-0.60;99.90;;;-0.14;98.51;95874.74;635108;221;32827;-72
2021/04/04 01:35:54;;;;;;;8.30;6.68;;;-0.80;99.90;;;-0.18;98.12;95872.98;645548;216;32340;-72
2021/04/04 01:38:26;;;;;;;9.05;6.90;;;-0.80;99.90;;;-0.18;98.43;95877.00;634658;221;31756;-72
2021/04/04 01:40:56;;;;;;;7.10;6.40;;;-0.70;99.90;;;-0.21;98.77;95875.30;643324;221;23474;-72
2021/04/04 01:43:25;;;;;;;7.13;6.00;;;-0.80;99.90;;;-0.23;99.44;95872.23;645095;221;24499;-72
2021/04/04 01:48:29;;;;;;;9.60;7.00;;;-0.80;99.90;;;-0.40;99.15;95875.86;646207;212;31567;-72
2021/04/04 01:50:58;;;;;;;6.87;6.17;;;-0.90;99.90;;;-0.49;99.25;95876.42;639346;221;23599;-72
2021/04/04 01:53:27;;;;;;;7.90;7.10;;;-1.10;99.90;;;-0.52;99.44;95879.58;639317;221;24483;-72
2021/04/04 01:55:56;;;;;;;7.10;5.70;;;-1.20;99.90;;;-0.56;99.87;95884.34;640228;220;25759;-72
2021/04/04 01:58:25;;;;;;;6.90;5.90;;;-1.20;99.90;;;-0.58;99.96;95865.23;639700;220;29925;-72
2021/04/04 02:03:28;;;;;;;9.13;6.50;;;-1.30;99.90;;;-0.65;99.85;95873.50;650104;216;31554;-72
2021/04/04 02:05:57;;;;;;;7.17;6.47;;;-1.30;99.90;;;-0.68;100.00;95873.32;641527;221;23797;-72
2021/04/04 02:08:26;;;;;;;8.13;6.80;;;-1.30;99.90;;;-0.72;100.00;95875.13;643530;221;24559;-71
2021/04/04 02:10:56;;;;;;;6.73;6.00;;;-1.20;99.90;;;-0.75;100.00;95873.89;640574;221;24546;-72
2021/04/04 02:13:25;;;;;;;8.37;6.30;;;-1.30;99.90;;;-0.65;99.56;95874.68;643294;220;24504;-72
2021/04/04 02:15:59;;;;;;;8.87;6.57;;;-1.40;99.90;;;-0.59;98.44;95871.22;672164;211;24700;-72
2021/04/04 02:18:28;;;;;;;8.50;6.75;;;-1.40;99.90;;;-0.64;98.73;95872.09;663476;211;31422;-72
2021/04/04 02:23:31;;;;;;;8.18;7.32;;;-1.40;99.90;;;-0.69;98.95;95867.12;649508;212;31963;-72
2021/04/04 02:26:00;;;;;;;7.17;6.43;;;-1.50;99.90;;;-0.70;99.18;95866.12;634142;221;23491;-72
2021/04/04 02:28:30;;;;;;;7.87;6.20;;;-1.50;99.90;;;-0.79;99.66;95865.42;629544;225;25087;-72
2021/04/04 02:30:59;;;;;;;8.43;7.53;;;-1.50;99.90;;;-0.81;100.00;95863.55;633590;225;24582;-72
2021/04/04 02:38:27;;;;;;;9.63;7.50;;;-1.50;99.90;;;-0.67;99.93;95861.62;645881;216;42186;-72
2021/04/04 02:40:56;;;;;;;7.90;7.10;;;-1.40;99.90;;;-0.72;99.96;95865.33;639448;220;23526;-72
2021/04/04 02:43:27;;;;;;;7.57;6.75;;;-1.50;99.90;;;-0.77;99.99;95862.77;636570;220;31907;-72
2021/04/04 02:45:55;;;;;;;7.10;6.40;;;-1.50;99.90;;;-0.83;100.00;95866.80;642623;221;23465;-72
2021/04/04 02:48:28;;;;;;;8.23;6.70;;;-1.60;99.90;;;-0.89;100.00;95865.23;641850;221;24507;-72
2021/04/04 02:50:58;;;;;;;8.37;5.50;;;-1.70;99.90;;;-0.92;100.00;95863.62;638416;221;24522;-72
2021/04/04 02:53:27;;;;;;;10.10;6.60;;;-1.70;99.90;;;-0.88;100.00;95865.27;633576;221;42434;-72
2021/04/04 02:55:56;;;;;;;6.73;6.10;;;-1.70;99.90;;;-0.96;100.00;95863.16;640529;221;24048;-72
2021/04/04 02:58:25;;;;;;;6.70;6.00;;;-1.80;99.90;;;-0.96;100.00;95861.59;643535;221;24502;-72
2021/04/04 03:00:57;;;;;;;8.95;6.80;;;-1.70;99.90;;;-0.92;100.00;95856.38;632015;221;31786;-72
2021/04/04 03:03:24;;;;;;;7.00;6.40;;;-1.70;99.90;;;-0.96;100.00;95859.65;639229;221;24480;-72
2021/04/04 03:05:53;;;;;;;7.87;7.07;;;-1.70;99.90;;;-0.97;100.00;95857.53;633558;220;31888;-72
2021/04/04 03:08:22;;;;;;;6.43;5.73;;;-1.70;99.90;;;-0.95;100.00;95857.02;641551;221;23456;-72
2021/04/04 03:10:51;;;;;;;7.85;6.70;;;-1.70;99.90;;;-0.98;100.00;95855.63;632472;221;31828;-72
2021/04/04 03:13:21;;;;;;;8.13;6.90;;;-1.80;99.90;;;-1.07;100.00;95850.76;640001;221;23473;-72
2021/04/04 03:15:50;;;;;;;10.93;7.40;;;-1.80;99.90;;;-1.01;100.00;95852.15;635329;221;31737;-72
2021/04/04 03:18:19;;;;;;;7.73;6.97;;;-1.80;99.90;;;-1.02;100.00;95850.53;644178;221;23471;-72
2021/04/04 03:20:48;;;;;;;9.03;6.13;;;-1.70;99.90;;;-1.06;100.00;95850.14;640623;221;24788;-73
2021/04/04 03:23:17;;;;;;;7.53;6.68;;;-1.70;99.90;;;-1.11;100.00;95849.09;636090;221;31768;-72
2021/04/04 03:25:46;;;;;;;7.97;6.70;;;-1.70;99.90;;;-1.13;100.00;95850.11;632651;221;23514;-72
2021/04/04 03:28:15;;;;;;;8.98;6.50;;;-1.70;99.90;;;-1.15;100.00;95848.51;624914;225;32266;-72
2021/04/04 03:30:45;;;;;;;6.90;6.03;;;-1.70;99.90;;;-1.14;100.00;95851.27;656437;215;23448;-72
2021/04/04 03:35:51;;;;;;;10.82;7.18;;;-1.60;99.90;;;-1.11;100.00;95852.66;645596;212;31542;-72
2021/04/04 03:38:20;;;;;;;8.90;7.07;;;-1.60;99.90;;;-1.09;100.00;95851.80;643914;221;24726;-72
2021/04/04 03:40:49;;;;;;;9.10;7.53;;;-1.60;99.90;;;-1.04;100.00;95845.20;639838;221;24525;-72
2021/04/04 03:43:19;;;;;;;7.50;6.80;;;-1.60;99.90;;;-0.98;100.00;95844.67;637202;220;31798;-72
2021/04/04 03:45:53;;;;;;;6.30;5.67;;;-1.60;99.90;;;-0.93;100.00;95845.97;641059;220;28762;-72
2021/04/04 03:48:22;;;;;;;9.13;7.80;;;-1.60;99.90;;;-0.88;100.00;95845.88;637539;221;31764;-72
2021/04/04 03:50:51;;;;;;;7.60;6.90;;;-1.60;99.90;;;-0.91;100.00;95845.34;639278;221;23533;-72
2021/04/04 03:53:20;;;;;;;8.85;6.68;;;-1.60;99.90;;;-0.94;100.00;95846.92;633718;220;31899;-72
2021/04/04 03:55:52;;;;;;;9.40;7.30;;;-1.60;99.90;;;-0.93;100.00;95848.69;633770;221;32127;-72
2021/04/04 03:58:21;;;;;;;8.60;6.70;;;-1.70;99.90;;;-0.99;100.00;95852.05;639076;221;31725;-72
2021/04/04 04:00:50;;;;;;;7.70;7.00;;;-1.80;99.90;;;-0.98;100.00;95856.29;641973;220;24610;-72
2021/04/04 04:03:19;;;;;;;8.00;7.20;;;-1.80;99.90;;;-1.08;100.00;95858.88;641462;220;24510;-72
2021/04/04 04:05:48;;;;;;;6.93;6.13;;;-1.90;99.90;;;-1.13;100.00;95863.67;645641;221;30915;-72
2021/04/04 04:08:17;;;;;;;8.07;6.65;;;-1.90;99.90;;;-1.13;100.00;95855.44;635060;220;31740;-72
2021/04/04 04:10:46;;;;;;;8.20;7.25;;;-2.00;99.90;;;-1.12;100.00;95857.69;631806;221;31723;-72
2021/04/04 04:13:15;;;;;;;8.10;7.17;;;-2.00;99.90;;;-1.11;100.00;95857.48;640323;220;23445;-72
2021/04/04 04:15:44;;;;;;;8.63;7.12;;;-2.10;99.90;;;-1.20;100.00;95859.70;664659;211;31494;-72
2021/04/04 04:18:13;;;;;;;7.13;6.43;;;-2.10;99.90;;;-1.27;100.00;95857.01;670279;211;23500;-72
2021/04/04 04:20:42;;;;;;;7.40;6.60;;;-2.10;99.90;;;-1.35;100.00;95856.09;661241;211;31393;-72
2021/04/04 04:23:12;;;;;;;11.40;7.43;;;-2.20;99.90;;;-1.38;100.00;95855.73;662082;211;31514;-72
2021/04/04 04:25:41;;;;;;;6.93;6.30;;;-2.10;99.90;;;-1.42;100.00;95851.73;669736;211;23426;-72
2021/04/04 04:28:10;;;;;;;10.35;7.30;;;-2.10;99.90;;;-1.46;100.00;95850.00;663902;211;31824;-71
2021/04/04 04:30:39;;;;;;;8.80;7.90;;;-2.10;99.90;;;-1.49;100.00;95848.02;670860;211;23409;-71
2021/04/04 04:35:50;;;;;;;8.07;7.12;;;-2.10;99.90;;;-1.45;100.00;95848.87;647469;212;31578;-72
2021/04/04 04:38:20;;;;;;;8.77;7.07;;;-2.00;99.90;;;-1.45;100.00;95846.91;643078;220;23478;-72
2021/04/04 04:40:49;;;;;;;9.38;7.82;;;-2.10;99.90;;;-1.45;100.00;95849.73;635525;221;31789;-72
2021/04/04 04:43:18;;;;;;;8.23;6.60;;;-2.20;99.90;;;-1.52;100.00;95846.94;640875;221;24007;-72
2021/04/04 04:45:47;;;;;;;8.30;7.40;;;-2.10;99.90;;;-1.46;100.00;95848.08;635932;220;31806;-72
2021/04/04 04:48:16;;;;;;;10.97;8.00;;;-1.90;99.90;;;-1.45;100.00;95839.73;638974;221;23474;-72
2021/04/04 04:50:45;;;;;;;9.23;7.53;;;-2.00;99.90;;;-1.40;100.00;95844.76;633083;221;31809;-72
2021/04/04 04:53:14;;;;;;;8.20;6.90;;;-1.90;99.90;;;-1.35;100.00;95840.17;641752;220;23504;-72
2021/04/04 04:55:43;;;;;;;10.73;7.37;;;-1.80;99.90;;;-1.38;100.00;95848.46;663632;211;31403;-72
2021/04/04 04:58:12;;;;;;;7.67;6.53;;;-1.80;99.90;;;-1.42;100.00;95843.18;666084;211;23449;-72
2021/04/04 05:00:41;;;;;;;8.20;7.40;;;-1.80;99.90;;;-1.41;100.00;95845.63;663818;211;31400;-70
2021/04/04 05:03:10;;;;;;;7.80;7.00;;;-1.90;99.90;;;-1.44;100.00;95843.20;671025;211;23948;-70
2021/04/04 05:05:39;;;;;;;9.90;6.75;;;-1.90;99.90;;;-1.49;100.00;95843.30;649002;215;31603;-71
2021/04/04 05:08:08;;;;;;;8.88;7.30;;;-1.90;99.90;;;-1.42;100.00;95844.88;647485;215;31614;-71
2021/04/04 05:10:38;;;;;;;8.02;7.00;;;-2.00;99.90;;;-1.45;100.00;95846.85;663935;211;31445;-71
2021/04/04 05:13:07;;;;;;;11.63;6.83;;;-2.00;99.90;;;-1.42;100.00;95849.08;664870;211;23540;-71
2021/04/04 05:15:36;;;;;;;8.75;7.32;;;-2.00;99.90;;;-1.38;100.00;95847.06;663765;211;32013;-71
2021/04/04 05:18:05;;;;;;;7.83;6.73;;;-2.00;99.90;;;-1.33;100.00;95848.95;654250;216;23432;-71
2021/04/04 05:20:34;;;;;;;9.05;6.70;;;-1.90;99.90;;;-1.28;100.00;95846.37;649870;216;31617;-70
2021/04/04 05:23:04;;;;;;;9.07;8.17;;;-1.80;99.90;;;-1.28;100.00;95843.30;666655;211;23402;-71
2021/04/04 05:25:33;;;;;;;8.07;7.33;;;-1.70;99.90;;;-1.22;100.00;95842.40;649502;216;24535;-71
2021/04/04 05:28:02;;;;;;;12.30;6.77;;;-1.70;99.90;;;-1.15;100.00;95849.30;641741;220;30881;-73
2021/04/04 05:30:31;;;;;;;10.85;8.05;;;-1.60;99.90;;;-0.96;100.00;95849.15;650738;216;32020;-71
2021/04/04 05:33:00;;;;;;;8.90;8.00;;;-1.40;99.90;;;-0.64;100.00;95844.31;656695;215;23440;-71
2021/04/04 05:35:51;;;;;;;8.85;7.60;;;-1.10;99.90;;;-0.56;100.00;95846.48;645182;212;31589;-72
2021/04/04 05:38:20;;;;;;;9.70;8.33;;;-1.00;99.90;;;-0.49;100.00;95845.70;642360;220;25781;-72
2021/04/04 05:40:49;;;;;;;11.38;8.30;;;-1.00;99.90;;;-0.40;100.00;95849.52;635264;221;31858;-72
2021/04/04 05:43:18;;;;;;;7.87;7.07;;;-0.90;99.90;;;-0.36;100.00;95847.30;638891;220;23539;-72
2021/04/04 05:46:04;;;;;;;7.60;6.67;;;-0.80;99.90;;;-0.30;100.00;95846.39;640727;221;24508;-72
2021/04/04 05:48:57;;;;;;;8.80;7.90;;;-0.70;99.90;;;-0.20;100.00;95847.61;635476;221;31729;-72
2021/04/04 05:51:38;;;;;;;8.37;7.67;;;-0.60;99.90;;;-0.09;100.00;95844.41;638620;220;32233;-72
2021/04/04 05:54:27;;;;;;;9.93;7.30;;;-0.50;99.90;;;0.02;100.00;95842.47;641682;220;24536;-72
2021/04/04 05:56:58;;;;;;;9.30;6.87;;;-0.50;99.90;;;0.12;100.00;95849.06;646669;215;31658;-71
2021/04/04 05:59:47;;;;;;;9.60;8.50;;;-0.40;99.90;;;0.15;100.00;95847.84;654724;216;23443;-71
2021/04/04 06:02:40;;;;;;;7.77;6.70;;;-0.30;99.90;;;0.39;100.00;95848.70;629578;220;24534;-71
2021/04/04 06:05:34;;;;;;;8.95;7.25;;;0.00;99.90;;;0.64;100.00;95851.80;646296;212;31552;-72
2021/04/04 06:08:18;;;;;;;9.27;7.53;;;0.10;99.90;;;0.83;100.00;95852.89;640176;221;24690;-72
2021/04/04 06:11:03;;;;;;;7.90;7.10;;;0.30;99.90;;;1.05;99.10;95857.20;638068;221;24590;-72
2021/04/04 06:13:38;;;;;;;12.30;8.00;;;0.40;99.90;;;1.13;97.95;95855.31;639052;220;24506;-72
2021/04/04 06:16:11;;;;;;;8.23;7.40;;;0.50;99.90;;;1.19;97.80;95854.16;639294;219;30909;-72
2021/04/04 06:18:52;;;;;;;8.07;6.93;;;0.60;99.90;;;1.33;97.71;95854.73;654809;216;24481;-72
2021/04/04 06:21:27;;;;;;;7.63;6.93;;;0.60;99.90;;;1.44;97.19;95859.66;668541;211;24420;-72
2021/04/04 06:24:05;;;;;;;8.13;7.10;;;0.80;99.90;;;1.53;96.24;95859.65;667569;211;24462;-72
2021/04/04 06:26:46;;;;;;;10.30;7.70;;;1.00;99.90;;;1.63;95.51;95853.27;668748;211;24425;-72
2021/04/04 06:29:19;;;;;;;10.07;7.57;;;1.10;99.90;;;1.79;95.23;95849.38;670416;211;24415;-72
2021/04/04 06:31:59;;;;;;;8.80;8.00;;;1.30;99.90;;;2.02;94.06;95852.69;670971;211;24650;-73
2021/04/04 06:36:16;;;;;;;8.95;7.60;;;1.60;99.90;;;2.47;91.56;95850.27;648694;216;32932;-72
2021/04/04 06:39:07;;;;;;;8.68;7.75;;;1.90;99.90;;;2.83;88.87;95854.19;649693;216;31782;-72
2021/04/04 06:44:38;;;;;;;8.38;7.03;;;2.30;99.90;;;3.47;85.74;95848.53;647244;216;31594;-72
2021/04/04 06:47:27;;;;;;;7.47;6.67;;;2.50;99.90;;;3.52;82.49;95851.53;641004;221;24971;-72
2021/04/04 06:50:19;;;;;;;9.05;7.53;;;2.60;99.90;;;3.89;84.00;95851.46;621153;222;31863;-73
2021/04/04 06:52:59;;;;;;;9.43;8.53;;;2.70;99.90;;;4.08;83.89;95848.95;615531;230;24630;-77
2021/04/04 06:58:17;;;;;;;9.25;7.55;;;3.00;99.90;;;3.99;83.65;95846.29;618534;226;32243;-77
2021/04/04 07:01:07;;;;;;;8.50;7.60;;;2.90;99.90;;;3.93;82.11;95846.44;617116;230;23538;-77
2021/04/04 07:03:49;;;;;;;9.90;8.40;;;2.90;99.90;;;4.41;83.30;95842.44;648267;216;31533;-77
2021/04/04 07:06:55;;;;;;;8.43;7.53;;;3.10;99.90;;;4.60;83.31;95841.70;639682;221;23466;-78
2021/04/04 07:09:53;;;;;;;8.75;7.95;;;3.20;99.90;;;4.74;83.41;95838.07;648197;212;31659;-77
2021/04/04 07:12:27;;;;;;;9.50;7.77;;;3.40;99.90;;;4.60;81.12;95844.64;641056;220;23528;-78
2021/04/04 07:15:23;;;;;;;8.90;7.60;;;3.30;99.90;;;4.76;80.89;95841.68;641212;220;24521;-77
2021/04/04 07:18:22;;;;;;;10.73;7.87;;;3.50;99.90;;;5.17;80.27;95842.20;621870;225;42926;-78
2021/04/04 07:21:31;;;;;;;9.68;7.93;;;3.80;99.90;;;5.34;78.39;95847.75;647752;212;31710;-77
2021/04/04 07:24:27;;;;;;;9.20;7.35;;;4.00;99.90;;;5.45;76.91;95845.78;647760;212;32534;-77
2021/04/04 07:27:11;;;;;;;7.20;6.17;;;4.10;99.90;;;5.42;75.14;95852.87;630057;224;23506;-77
2021/04/04 07:29:47;;;;;;;6.80;6.13;;;4.20;99.90;;;5.56;76.01;95849.64;628050;225;24508;-78
2021/04/04 07:32:24;;;;;;;6.33;5.73;;;4.20;99.90;;;5.23;71.97;95844.68;629107;225;28838;-77
2021/04/04 07:36:05;;;;;;;8.32;6.20;;;4.30;99.90;;;5.56;72.92;95843.08;619552;225;31904;-78
2021/04/04 07:38:55;;;;;;;9.13;6.10;;;4.50;99.90;;;5.70;72.57;95845.64;616411;230;23523;-77
2021/04/04 07:41:36;;;;;;;7.37;6.07;;;4.70;99.90;;;5.89;70.93;95845.23;647498;212;31564;-77
2021/04/04 07:47:06;;;;;;;8.30;6.70;;;4.90;99.90;;;5.94;69.46;95848.02;621231;222;31863;-78
2021/04/04 07:49:38;;;;;;;6.97;6.17;;;4.80;99.90;;;5.82;66.62;95848.23;617489;229;23540;-77
2021/04/04 07:52:25;;;;;;;9.05;6.00;;;4.90;99.90;;;5.66;67.49;95847.94;612957;229;32015;-78
2021/04/04 07:55:19;;;;;;;7.10;6.28;;;4.90;99.90;;;6.20;67.43;95850.39;620427;222;32032;-78
2021/04/04 07:57:56;;;;;;;7.40;5.57;;;5.40;99.90;;;6.36;66.21;95852.87;616597;230;24631;-78
2021/04/04 08:00:25;;;;;;;6.13;5.10;;;5.40;99.90;;;6.77;68.84;95843.61;616853;229;24610;-78
2021/04/04 08:03:03;;;;;;;5.93;5.40;;;5.60;99.90;;;7.09;64.84;95846.16;617772;229;24616;-79
2021/04/04 08:05:32;;;;;;;6.70;5.93;;;6.00;99.90;;;7.14;61.57;95849.11;614314;230;27193;-78
2021/04/04 08:08:04;;;;;;;5.93;5.00;;;6.20;99.90;;;7.33;63.90;95848.17;617249;229;28895;-78
2021/04/04 08:10:48;;;;;;;5.03;4.30;;;6.30;99.90;;;7.57;62.19;95850.06;617441;229;28945;-78
2021/04/04 08:13:38;;;;;;;6.60;6.00;;;6.40;99.90;;;8.30;61.83;95847.64;615763;229;24615;-78
2021/04/04 08:16:44;;;;;;;7.20;5.28;;;7.20;99.90;;;8.70;59.81;95853.70;622075;222;31919;-78
2021/04/04 08:19:23;;;;;;;5.85;4.70;;;7.20;99.90;;;8.95;58.38;95849.22;624282;222;31881;-77
2021/04/04 08:21:54;;;;;;;5.80;5.30;;;7.30;99.90;;;9.36;60.71;95847.73;616145;230;23550;-77
2021/04/04 08:24:45;;;;;;;5.10;4.60;;;7.60;99.90;;;9.21;52.27;95847.71;617806;230;24605;-77
2021/04/04 08:27:36;;;;;;;5.40;4.80;;;7.90;99.90;;;8.81;55.46;95852.03;620312;226;32024;-77
2021/04/04 08:30:17;;;;;;;6.93;5.30;;;7.60;99.90;;;9.07;53.71;95849.05;617463;230;28818;-76
2021/04/04 08:32:46;;;;;;;4.83;4.20;;;7.50;1.00;;;9.35;55.34;95847.86;617875;230;24602;-76
2021/04/04 08:35:52;;;;;;;6.93;4.62;;;7.40;1.00;;;9.23;53.19;95850.66;645239;216;31598;-78
2021/04/04 08:38:40;;;;;;;5.40;4.87;;;7.50;99.90;;;9.19;54.04;95845.41;643495;221;23752;-78
2021/04/04 08:41:11;;;;;;;5.70;5.20;;;7.70;99.90;;;9.54;54.21;95845.84;645515;220;24536;-78
2021/04/04 08:43:42;;;;;;;5.20;4.80;;;7.70;1.00;;;9.53;53.41;95848.94;671953;211;24398;-77
2021/04/04 08:46:32;;;;;;;5.60;4.47;;;7.80;99.90;;;9.58;52.10;95848.34;664343;211;42048;-77
2021/04/04 08:49:10;;;;;;;5.97;4.50;;;7.90;1.00;;;9.93;50.49;95846.73;625100;226;32070;-77
2021/04/04 08:54:19;;;;;;;3.97;3.50;;;8.90;99.90;;;9.84;49.47;95843.66;645643;216;42791;-77
2021/04/04 08:56:50;;;;;;;3.85;3.30;;;8.30;99.90;;;10.50;45.94;95845.81;636166;220;31798;-78
2021/04/04 08:59:19;;;;;;;5.30;3.93;;;8.90;99.90;;;11.07;47.75;95847.31;639963;220;23496;-78
2021/04/04 09:01:48;;;;;;;5.17;4.27;;;9.60;99.90;;;11.18;43.19;95843.30;642450;220;24494;-78
2021/04/04 09:04:17;;;;;;;3.03;2.83;;;9.90;99.90;;;13.58;42.96;95832.82;661613;216;24469;-78
2021/04/04 09:06:47;;;;;;;7.20;2.90;;;14.10;99.90;;;15.23;37.35;95833.48;670254;211;28878;-78
2021/04/04 09:09:19;;;;;;;4.60;3.50;;;16.10;16.90;;;18.23;36.74;95831.70;656104;216;28750;-76
2021/04/04 09:11:50;;;;;;;6.28;2.80;;;16.70;99.90;;;16.54;33.15;95831.89;650248;216;31544;-77
2021/04/04 09:14:19;;;;;;;3.53;3.10;;;15.30;99.90;;;15.49;37.67;95840.83;667292;211;22470;-77
2021/04/04 09:16:55;;;;;;;3.90;3.60;;;15.00;1.00;;;16.91;32.45;95841.57;654639;216;24491;-78
2021/04/04 09:19:31;;;;;;;3.13;2.80;;;15.00;24.10;;;19.90;34.05;95834.25;655836;216;23467;-77
2021/04/04 09:22:00;;;;;;;2.77;2.37;;;17.00;99.90;;;21.64;31.23;95827.89;642051;220;28728;-80
2021/04/04 09:24:30;;;;;;;3.80;2.97;;;18.90;99.90;;;20.65;29.82;95831.97;654058;216;24486;-78
2021/04/04 09:27:05;;;;;;;3.53;3.23;;;18.20;99.90;;;22.53;33.54;95827.08;659087;215;23705;-78
2021/04/04 09:29:34;;;;;;;3.10;2.77;;;18.30;1.00;;;18.88;27.56;95834.08;632980;225;24618;-78
2021/04/04 09:32:06;;;;;;;3.97;3.00;;;16.20;1.00;;;21.63;30.89;95830.67;657816;215;24462;-79
2021/04/04 09:36:08;;;;;;;3.37;2.40;;;18.20;1.00;;;18.99;26.10;95833.39;647759;216;31656;-78
2021/04/04 09:38:36;;;;;;;3.77;3.17;;;15.70;99.90;;;18.56;33.83;95831.61;640380;220;24049;-77
2021/04/04 09:41:05;;;;;;;3.33;2.70;;;16.10;99.90;;;21.04;31.71;95821.12;640659;220;23571;-78
2021/04/04 09:46:10;;;;;;;3.10;2.80;;;15.50;99.90;;;18.84;27.54;95825.48;618943;226;32052;-76
2021/04/04 09:48:40;;;;;;;3.30;3.00;;;15.80;1.00;;;16.42;29.27;95825.59;618393;228;27823;-76
2021/04/04 09:51:10;;;;;;;2.10;2.00;;;14.90;99.90;;;20.61;29.49;95824.22;616931;230;23664;-76
2021/04/04 09:53:47;;;;;;;3.67;2.83;;;17.20;1.20;;;18.22;26.30;95823.71;616635;230;23729;-76
2021/04/04 09:56:17;;;;;;;3.83;2.80;;;14.40;99.90;;;19.30;30.70;95818.84;615242;230;23644;-74
2021/04/04 09:58:46;;;;;;;3.43;3.17;;;16.10;1.00;;;22.07;26.00;95810.16;615911;229;27055;-75
2021/04/04 10:01:19;;;;;;;3.63;3.30;;;18.70;1.00;;;23.49;27.20;95810.94;615984;229;23776;-75
2021/04/04 10:06:30;;;;;;;3.60;2.80;;;13.30;1.00;;;16.94;27.72;95813.46;647208;212;31619;-77
2021/04/04 10:08:59;;;;;;;3.33;3.03;;;13.80;99.90;;;20.85;28.06;95805.14;642406;220;23481;-77
2021/04/04 10:11:28;;;;;;;3.03;2.63;;;16.90;22.30;;;22.96;24.36;95802.94;637719;221;23665;-77
2021/04/04 10:14:10;;;;;;;4.10;2.50;;;19.00;99.90;;;22.62;25.25;95799.08;642247;220;23612;-77
2021/04/04 10:16:39;;;;;;;4.00;3.00;;;18.70;99.90;;;24.35;24.98;95800.93;652695;216;23503;-78
2021/04/04 10:19:11;;;;;;;3.37;3.07;;;18.90;99.90;;;25.11;24.48;95793.41;655435;216;23476;-77
2021/04/04 10:21:41;;;;;;;3.17;2.87;;;19.90;1.00;;;22.93;24.19;95792.22;668620;211;29747;-78
2021/04/04 10:24:32;;;;;;;2.87;2.67;;;18.70;1.00;;;20.57;24.17;95792.23;674170;211;23439;-77
2021/04/04 10:27:18;;;;;;;3.00;2.70;;;16.00;99.90;;;17.59;28.44;95796.08;658042;216;28795;-77
2021/04/04 10:32:26;;;;;;;3.20;2.70;;;18.80;99.90;;;20.19;27.55;95785.41;621007;225;31916;-77
2021/04/04 10:35:56;;;;;;;2.70;2.50;;;16.30;99.90;;;17.88;26.62;95782.29;646792;216;31666;-75
2021/04/04 10:38:26;;;;;;;2.83;2.43;;;15.40;1.00;;;20.75;25.62;95774.58;643065;220;24106;-76
2021/04/04 10:40:56;;;;;;;4.00;2.90;;;17.00;1.00;;;21.67;23.23;95771.00;633847;220;31804;-75
2021/04/04 10:43:43;;;;;;;3.37;2.67;;;18.00;1.00;;;22.91;22.97;95767.77;636602;221;31894;-76
2021/04/04 10:46:13;;;;;;;3.20;2.60;;;18.30;99.90;;;25.37;22.23;95761.84;643600;221;23587;-75
2021/04/04 10:48:42;;;;;;;2.90;2.60;;;19.40;99.90;;;23.28;21.45;95767.42;635196;221;32346;-76
2021/04/04 10:51:11;;;;;;;3.60;3.30;;;17.40;99.90;;;24.78;20.27;95759.04;642350;221;22479;-76
2021/04/04 10:53:41;;;;;;;4.80;4.27;;;18.80;99.90;;;24.55;22.93;95758.98;640920;221;23525;-75
2021/04/04 10:56:10;;;;;;;2.70;2.37;;;19.20;9.70;;;26.49;21.09;95761.11;646318;215;42852;-75
2021/04/04 10:58:39;;;;;;;3.63;3.33;;;19.10;99.90;;;23.77;21.80;95762.89;665996;211;22439;-75
2021/04/04 11:01:10;;;;;;;3.00;2.60;;;18.00;99.90;;;24.73;19.98;95755.61;664879;211;41992;-75
2021/04/04 11:06:13;;;;;;;3.00;2.80;;;17.90;99.90;;;26.00;20.41;95752.09;646438;216;31567;-77
2021/04/04 11:08:43;;;;;;;3.00;2.70;;;17.70;99.90;;;26.32;19.76;95752.38;640759;220;24038;-77
2021/04/04 11:11:12;;;;;;;3.70;2.70;;;17.90;99.90;;;27.70;19.06;95745.07;642511;221;29841;-79
2021/04/04 11:13:41;;;;;;;5.43;3.20;;;19.30;99.90;;;27.45;19.82;95743.91;641987;220;27795;-77
2021/04/04 11:18:48;;;;;;;3.30;2.35;;;20.80;4.90;;;26.84;19.10;95733.77;647941;216;31559;-74
2021/04/04 11:23:50;;;;;;;3.03;2.72;;;17.10;99.90;;;21.73;21.52;95730.95;622837;226;32029;-76
2021/04/04 11:26:27;;;;;;;3.00;2.50;;;16.60;99.90;;;21.10;24.01;95730.92;608232;230;22590;-75
2021/04/04 11:29:11;;;;;;;4.00;3.63;;;16.50;99.90;;;26.57;19.86;95728.34;603330;234;23682;-76
2021/04/04 11:31:41;;;;;;;3.80;2.97;;;19.30;1.00;;;27.62;19.20;95724.16;604886;233;24767;-76
2021/04/04 11:36:08;;;;;;;4.43;2.80;;;19.20;1.00;;;28.76;19.22;95714.57;650336;212;42190;-76
2021/04/04 11:38:52;;;;;;;3.60;3.30;;;20.60;1.00;;;23.58;20.08;95718.37;641521;220;23526;-76
2021/04/04 11:41:31;;;;;;;3.55;2.90;;;16.90;99.90;;;19.79;23.51;95716.11;647621;216;31736;-75
2021/04/04 11:44:41;;;;;;;3.40;2.60;;;15.90;99.90;;;25.93;19.91;95711.57;637079;221;31882;-76
2021/04/04 11:47:24;;;;;;;3.50;3.17;;;18.40;99.90;;;26.85;18.72;95707.09;642183;221;22605;-75